sensor_id;sensor_type;location;lat;lon;timestamp;pressure;altitude;pressure_sealevel;temperature
77789;BMP280;70537;44.384;0.512;2024-03-17T00:02:17;101456.16;;;10.70
77789;BMP280;70537;44.384;0.512;2024-03-17T00:04:44;101427.09;;;10.62
77789;BMP280;70537;44.384;0.512;2024-03-17T00:07:10;101409.47;;;10.57
77789;BMP280;70537;44.384;0.512;2024-03-17T00:09:36;101420.03;;;10.55
77789;BMP280;70537;44.384;0.512;2024-03-17T00:12:01;101441.75;;;10.55
77789;BMP280;70537;44.384;0.512;2024-03-17T00:14:27;101445.22;;;10.56
77789;BMP280;70537;44.384;0.512;2024-03-17T00:16:53;101436.34;;;10.55
77789;BMP280;70537;44.384;0.512;2024-03-17T00:19:19;101429.97;;;10.58
77789;BMP280;70537;44.384;0.512;2024-03-17T00:21:47;101426.34;;;10.61
77789;BMP280;70537;44.384;0.512;2024-03-17T00:24:13;101431.31;;;10.63
77789;BMP280;70537;44.384;0.512;2024-03-17T00:26:39;101438.56;;;10.57
77789;BMP280;70537;44.384;0.512;2024-03-17T00:29:04;101426.81;;;10.60
77789;BMP280;70537;44.384;0.512;2024-03-17T00:31:31;101420.03;;;10.55
77789;BMP280;70537;44.384;0.512;2024-03-17T00:33:57;101420.03;;;10.55
77789;BMP280;70537;44.384;0.512;2024-03-17T00:36:23;101414.00;;;10.60
77789;BMP280;70537;44.384;0.512;2024-03-17T00:38:48;101392.91;;;10.55
77789;BMP280;70537;44.384;0.512;2024-03-17T00:41:14;101395.63;;;10.55
77789;BMP280;70537;44.384;0.512;2024-03-17T00:43:39;101378.28;;;10.53
77789;BMP280;70537;44.384;0.512;2024-03-17T00:46:05;101364.28;;;10.45
77789;BMP280;70537;44.384;0.512;2024-03-17T00:48:30;101368.97;;;10.44
77789;BMP280;70537;44.384;0.512;2024-03-17T00:50:57;101371.69;;;10.44
77789;BMP280;70537;44.384;0.512;2024-03-17T00:53:24;101384.03;;;10.45
77789;BMP280;70537;44.384;0.512;2024-03-17T00:55:53;101391.44;;;10.45
77789;BMP280;70537;44.384;0.512;2024-03-17T00:58:22;101397.78;;;10.42
77789;BMP280;70537;44.384;0.512;2024-03-17T01:00:47;101389.34;;;10.40
77789;BMP280;70537;44.384;0.512;2024-03-17T01:03:14;101386.53;;;10.34
77789;BMP280;70537;44.384;0.512;2024-03-17T01:05:40;101383.50;;;10.32
77789;BMP280;70537;44.384;0.512;2024-03-17T01:08:08;101396.59;;;10.34
77789;BMP280;70537;44.384;0.512;2024-03-17T01:10:40;101397.84;;;10.33
77789;BMP280;70537;44.384;0.512;2024-03-17T01:13:06;101392.69;;;10.35
77789;BMP280;70537;44.384;0.512;2024-03-17T01:15:39;101380.63;;;10.36
77789;BMP280;70537;44.384;0.512;2024-03-17T01:18:05;101377.16;;;10.35
77789;BMP280;70537;44.384;0.512;2024-03-17T01:20:40;101376.41;;;10.35
77789;BMP280;70537;44.384;0.512;2024-03-17T01:23:06;101361.06;;;10.32
77789;BMP280;70537;44.384;0.512;2024-03-17T01:25:33;101364.06;;;10.34
77789;BMP280;70537;44.384;0.512;2024-03-17T01:28:01;101385.88;;;10.39
77789;BMP280;70537;44.384;0.512;2024-03-17T01:30:27;101387.09;;;10.38
77789;BMP280;70537;44.384;0.512;2024-03-17T01:32:52;101405.00;;;10.45
77789;BMP280;70537;44.384;0.512;2024-03-17T01:35:17;101411.47;;;10.47
77789;BMP280;70537;44.384;0.512;2024-03-17T01:37:43;101406.47;;;10.55
77789;BMP280;70537;44.384;0.512;2024-03-17T01:40:09;101409.78;;;10.59
77789;BMP280;70537;44.384;0.512;2024-03-17T01:42:39;101416.06;;;10.65
77789;BMP280;70537;44.384;0.512;2024-03-17T01:47:42;101387.81;;;10.72
77789;BMP280;70537;44.384;0.512;2024-03-17T01:50:08;101381.16;;;10.73
77789;BMP280;70537;44.384;0.512;2024-03-17T01:52:36;101369.56;;;10.72
77789;BMP280;70537;44.384;0.512;2024-03-17T01:55:03;101373.63;;;10.77
77789;BMP280;70537;44.384;0.512;2024-03-17T01:57:29;101375.75;;;10.73
77789;BMP280;70537;44.384;0.512;2024-03-17T01:59:55;101375.09;;;10.78
77789;BMP280;70537;44.384;0.512;2024-03-17T02:02:21;101366.78;;;10.82
77789;BMP280;70537;44.384;0.512;2024-03-17T02:04:46;101361.81;;;10.80
77789;BMP280;70537;44.384;0.512;2024-03-17T02:07:13;101352.75;;;10.83
77789;BMP280;70537;44.384;0.512;2024-03-17T02:09:40;101351.41;;;10.79
77789;BMP280;70537;44.384;0.512;2024-03-17T02:12:07;101339.06;;;10.78
77789;BMP280;70537;44.384;0.512;2024-03-17T02:14:33;101344.00;;;10.79
77789;BMP280;70537;44.384;0.512;2024-03-17T02:16:59;101339.53;;;10.76
77789;BMP280;70537;44.384;0.512;2024-03-17T02:19:24;101338.03;;;10.75
77789;BMP280;70537;44.384;0.512;2024-03-17T02:21:50;101328.09;;;10.72
77789;BMP280;70537;44.384;0.512;2024-03-17T02:24:16;101330.31;;;10.73
77789;BMP280;70537;44.384;0.512;2024-03-17T02:26:41;101333.03;;;10.73
77789;BMP280;70537;44.384;0.512;2024-03-17T02:29:07;101314.03;;;10.73
77789;BMP280;70537;44.384;0.512;2024-03-17T02:31:32;101316.84;;;10.79
77789;BMP280;70537;44.384;0.512;2024-03-17T02:33:57;101311.44;;;10.79
77789;BMP280;70537;44.384;0.512;2024-03-17T02:36:23;101300.47;;;10.73
77789;BMP280;70537;44.384;0.512;2024-03-17T02:38:48;101302.09;;;10.80
77789;BMP280;70537;44.384;0.512;2024-03-17T02:41:32;101308.44;;;10.77
77789;BMP280;70537;44.384;0.512;2024-03-17T02:43:58;101317.91;;;10.82
77789;BMP280;70537;44.384;0.512;2024-03-17T02:46:23;101309.75;;;10.82
77789;BMP280;70537;44.384;0.512;2024-03-17T02:48:53;101319.72;;;10.85
77789;BMP280;70537;44.384;0.512;2024-03-17T02:51:20;101308.63;;;10.88
77789;BMP280;70537;44.384;0.512;2024-03-17T02:53:47;101304.16;;;10.85
77789;BMP280;70537;44.384;0.512;2024-03-17T02:56:14;101300.78;;;10.90
77789;BMP280;70537;44.384;0.512;2024-03-17T02:58:43;101313.59;;;10.90
77789;BMP280;70537;44.384;0.512;2024-03-17T03:01:09;101297.75;;;10.88
77789;BMP280;70537;44.384;0.512;2024-03-17T03:03:35;101294.31;;;10.88
77789;BMP280;70537;44.384;0.512;2024-03-17T03:06:01;101287.56;;;10.83
77789;BMP280;70537;44.384;0.512;2024-03-17T03:08:31;101297.97;;;10.85
77789;BMP280;70537;44.384;0.512;2024-03-17T03:10:57;101289.53;;;10.83
77789;BMP280;70537;44.384;0.512;2024-03-17T03:13:22;101300.09;;;10.81
77789;BMP280;70537;44.384;0.512;2024-03-17T03:15:48;101277.44;;;10.84
77789;BMP280;70537;44.384;0.512;2024-03-17T03:18:14;101282.13;;;10.83
77789;BMP280;70537;44.384;0.512;2024-03-17T03:20:40;101278.19;;;10.84
77789;BMP280;70537;44.384;0.512;2024-03-17T03:23:05;101270.53;;;10.83
77789;BMP280;70537;44.384;0.512;2024-03-17T03:25:31;101274.28;;;10.85
77789;BMP280;70537;44.384;0.512;2024-03-17T03:27:56;101273.53;;;10.85
77789;BMP280;70537;44.384;0.512;2024-03-17T03:30:23;101278.19;;;10.84
77789;BMP280;70537;44.384;0.512;2024-03-17T03:32:49;101288.56;;;10.86
77789;BMP280;70537;44.384;0.512;2024-03-17T03:35:15;101301.25;;;10.89
77789;BMP280;70537;44.384;0.512;2024-03-17T03:37:41;101281.94;;;10.87
77789;BMP280;70537;44.384;0.512;2024-03-17T03:40:07;101289.91;;;10.90
77789;BMP280;70537;44.384;0.512;2024-03-17T03:42:45;101293.09;;;10.89
77789;BMP280;70537;44.384;0.512;2024-03-17T03:45:11;101278.97;;;10.85
77789;BMP280;70537;44.384;0.512;2024-03-17T03:47:40;101279.53;;;10.89
77789;BMP280;70537;44.384;0.512;2024-03-17T03:50:09;101300.84;;;10.81
77789;BMP280;70537;44.384;0.512;2024-03-17T03:52:38;101310.97;;;10.81
77789;BMP280;70537;44.384;0.512;2024-03-17T03:55:06;101298.03;;;10.76
77789;BMP280;70537;44.384;0.512;2024-03-17T03:57:33;101288.69;;;10.77
77789;BMP280;70537;44.384;0.512;2024-03-17T03:59:59;101284.63;;;10.72
77789;BMP280;70537;44.384;0.512;2024-03-17T04:02:26;101287.06;;;10.70
77789;BMP280;70537;44.384;0.512;2024-03-17T04:04:56;101293.25;;;10.70
77789;BMP280;70537;44.384;0.512;2024-03-17T04:07:22;101289.78;;;10.70
77789;BMP280;70537;44.384;0.512;2024-03-17T04:09:47;101289.22;;;10.66
77789;BMP280;70537;44.384;0.512;2024-03-17T04:12:13;101310.69;;;10.55
77789;BMP280;70537;44.384;0.512;2024-03-17T04:14:38;101306.03;;;10.55
77789;BMP280;70537;44.384;0.512;2024-03-17T04:17:04;101300.03;;;10.51
77789;BMP280;70537;44.384;0.512;2024-03-17T04:19:30;101297.06;;;10.40
77789;BMP280;70537;44.384;0.512;2024-03-17T04:21:56;101302.84;;;10.33
77789;BMP280;70537;44.384;0.512;2024-03-17T04:24:21;101315.03;;;10.37
77789;BMP280;70537;44.384;0.512;2024-03-17T04:26:47;101310.56;;;10.34
77789;BMP280;70537;44.384;0.512;2024-03-17T04:29:13;101293.84;;;10.26
77789;BMP280;70537;44.384;0.512;2024-03-17T04:31:39;101294.00;;;10.23
77789;BMP280;70537;44.384;0.512;2024-03-17T04:34:04;101303.81;;;10.20
77789;BMP280;70537;44.384;0.512;2024-03-17T04:36:30;101315.75;;;10.14
77789;BMP280;70537;44.384;0.512;2024-03-17T04:38:55;101326.50;;;10.08
77789;BMP280;70537;44.384;0.512;2024-03-17T04:41:20;101340.53;;;10.07
77789;BMP280;70537;44.384;0.512;2024-03-17T04:43:46;101338.84;;;10.09
77789;BMP280;70537;44.384;0.512;2024-03-17T04:46:11;101339.75;;;10.06
77789;BMP280;70537;44.384;0.512;2024-03-17T04:48:39;101346.06;;;10.12
77789;BMP280;70537;44.384;0.512;2024-03-17T04:51:04;101359.47;;;10.16
77789;BMP280;70537;44.384;0.512;2024-03-17T04:53:30;101346.66;;;10.16
77789;BMP280;70537;44.384;0.512;2024-03-17T04:56:04;101339.06;;;10.20
77789;BMP280;70537;44.384;0.512;2024-03-17T04:58:31;101346.47;;;10.20
77789;BMP280;70537;44.384;0.512;2024-03-17T05:00:57;101328.22;;;10.20
77789;BMP280;70537;44.384;0.512;2024-03-17T05:03:22;101331.38;;;10.28
77789;BMP280;70537;44.384;0.512;2024-03-17T05:05:48;101324.16;;;10.25
77789;BMP280;70537;44.384;0.512;2024-03-17T05:08:14;101324.63;;;10.23
77789;BMP280;70537;44.384;0.512;2024-03-17T05:10:40;101323.22;;;10.28
77789;BMP280;70537;44.384;0.512;2024-03-17T05:13:05;101323.41;;;10.24
77789;BMP280;70537;44.384;0.512;2024-03-17T05:15:31;101323.69;;;10.26
77789;BMP280;70537;44.384;0.512;2024-03-17T05:17:56;101334.81;;;10.28
77789;BMP280;70537;44.384;0.512;2024-03-17T05:20:22;101330.00;;;10.33
77789;BMP280;70537;44.384;0.512;2024-03-17T05:22:48;101336.63;;;10.32
77789;BMP280;70537;44.384;0.512;2024-03-17T05:25:14;101338.13;;;10.33
77789;BMP280;70537;44.384;0.512;2024-03-17T05:27:40;101329.06;;;10.36
77789;BMP280;70537;44.384;0.512;2024-03-17T05:30:06;101320.19;;;10.35
77789;BMP280;70537;44.384;0.512;2024-03-17T05:32:34;101318.22;;;10.36
77789;BMP280;70537;44.384;0.512;2024-03-17T05:34:59;101303.41;;;10.37
77789;BMP280;70537;44.384;0.512;2024-03-17T05:37:24;101309.44;;;10.41
77789;BMP280;70537;44.384;0.512;2024-03-17T05:39:50;101310.06;;;10.36
77789;BMP280;70537;44.384;0.512;2024-03-17T05:42:15;101309.59;;;10.37
77789;BMP280;70537;44.384;0.512;2024-03-17T05:44:41;101311.84;;;10.39
77789;BMP280;70537;44.384;0.512;2024-03-17T05:47:18;101297.06;;;10.40
77789;BMP280;70537;44.384;0.512;2024-03-17T05:49:44;101311.28;;;10.35
77789;BMP280;70537;44.384;0.512;2024-03-17T05:52:11;101314.28;;;10.37
77789;BMP280;70537;44.384;0.512;2024-03-17T05:54:36;101317.66;;;10.32
77789;BMP280;70537;44.384;0.512;2024-03-17T05:57:03;101312.66;;;10.30
77789;BMP280;70537;44.384;0.512;2024-03-17T05:59:30;101313.13;;;10.28
77789;BMP280;70537;44.384;0.512;2024-03-17T06:01:58;101319.19;;;10.23
77789;BMP280;70537;44.384;0.512;2024-03-17T06:04:24;101320.44;;;10.13
77789;BMP280;70537;44.384;0.512;2024-03-17T06:06:49;101323.16;;;10.13
77789;BMP280;70537;44.384;0.512;2024-03-17T06:09:15;101316.13;;;10.07
77789;BMP280;70537;44.384;0.512;2024-03-17T06:11:43;101302.88;;;9.99
77789;BMP280;70537;44.384;0.512;2024-03-17T06:14:09;101308.28;;;9.99
77789;BMP280;70537;44.384;0.512;2024-03-17T06:16:37;101299.41;;;9.99
77789;BMP280;70537;44.384;0.512;2024-03-17T06:19:02;101312.38;;;9.95
77789;BMP280;70537;44.384;0.512;2024-03-17T06:21:28;101320.56;;;9.86
77789;BMP280;70537;44.384;0.512;2024-03-17T06:23:54;101325.19;;;9.85
77789;BMP280;70537;44.384;0.512;2024-03-17T06:26:19;101339.53;;;9.86
77789;BMP280;70537;44.384;0.512;2024-03-17T06:28:46;101332.16;;;9.86
77789;BMP280;70537;44.384;0.512;2024-03-17T06:31:11;101350.38;;;9.86
77789;BMP280;70537;44.384;0.512;2024-03-17T06:33:37;101346.59;;;9.92
77789;BMP280;70537;44.384;0.512;2024-03-17T06:36:04;101354.28;;;9.94
77789;BMP280;70537;44.384;0.512;2024-03-17T06:38:30;101345.53;;;9.99
77789;BMP280;70537;44.384;0.512;2024-03-17T06:40:56;101335.13;;;9.97
77789;BMP280;70537;44.384;0.512;2024-03-17T06:43:21;101332.97;;;10.01
77789;BMP280;70537;44.384;0.512;2024-03-17T06:45:57;101334.03;;;10.04
77789;BMP280;70537;44.384;0.512;2024-03-17T06:48:23;101321.69;;;10.03
77789;BMP280;70537;44.384;0.512;2024-03-17T06:50:49;101334.44;;;10.12
77789;BMP280;70537;44.384;0.512;2024-03-17T06:53:18;101330.41;;;10.07
77789;BMP280;70537;44.384;0.512;2024-03-17T06:55:44;101336.28;;;10.15
77789;BMP280;70537;44.384;0.512;2024-03-17T06:58:11;101344.97;;;10.19
77789;BMP280;70537;44.384;0.512;2024-03-17T07:00:37;101338.19;;;10.23
77789;BMP280;70537;44.384;0.512;2024-03-17T07:03:02;101328.19;;;10.30
77789;BMP280;70537;44.384;0.512;2024-03-17T07:05:28;101337.72;;;10.25
77789;BMP280;70537;44.384;0.512;2024-03-17T07:07:55;101327.41;;;10.38
77789;BMP280;70537;44.384;0.512;2024-03-17T07:10:20;101321.78;;;10.42
77789;BMP280;70537;44.384;0.512;2024-03-17T07:12:46;101319.19;;;10.47
77789;BMP280;70537;44.384;0.512;2024-03-17T07:15:11;101305.25;;;10.55
77789;BMP280;70537;44.384;0.512;2024-03-17T07:17:37;101303.53;;;10.66
77789;BMP280;70537;44.384;0.512;2024-03-17T07:20:02;101299.56;;;10.77
77789;BMP280;70537;44.384;0.512;2024-03-17T07:22:30;101299.69;;;10.97
77789;BMP280;70537;44.384;0.512;2024-03-17T07:24:55;101296.31;;;11.17
77789;BMP280;70537;44.384;0.512;2024-03-17T07:27:26;101287.59;;;11.43
77789;BMP280;70537;44.384;0.512;2024-03-17T07:29:51;101278.22;;;11.58
77789;BMP280;70537;44.384;0.512;2024-03-17T07:32:16;101263.91;;;11.78
77789;BMP280;70537;44.384;0.512;2024-03-17T07:34:42;101253.59;;;12.03
77789;BMP280;70537;44.384;0.512;2024-03-17T07:37:07;101255.09;;;12.24
77789;BMP280;70537;44.384;0.512;2024-03-17T07:39:33;101238.34;;;12.31
77789;BMP280;70537;44.384;0.512;2024-03-17T07:41:59;101232.78;;;12.41
77789;BMP280;70537;44.384;0.512;2024-03-17T07:44:29;101230.94;;;12.58
77789;BMP280;70537;44.384;0.512;2024-03-17T07:47:02;101215.47;;;12.70
77789;BMP280;70537;44.384;0.512;2024-03-17T07:49:29;101228.34;;;13.01
77789;BMP280;70537;44.384;0.512;2024-03-17T07:51:54;101229.34;;;13.35
77789;BMP280;70537;44.384;0.512;2024-03-17T07:54:20;101227.56;;;13.64
77789;BMP280;70537;44.384;0.512;2024-03-17T07:56:46;101227.69;;;13.98
77789;BMP280;70537;44.384;0.512;2024-03-17T07:59:12;101222.06;;;14.18
77789;BMP280;70537;44.384;0.512;2024-03-17T08:01:41;101231.00;;;14.35
77789;BMP280;70537;44.384;0.512;2024-03-17T08:04:07;101234.50;;;14.47
77789;BMP280;70537;44.384;0.512;2024-03-17T08:06:32;101254.91;;;14.57
77789;BMP280;70537;44.384;0.512;2024-03-17T08:08:58;101265.59;;;14.72
77789;BMP280;70537;44.384;0.512;2024-03-17T08:11:23;101280.25;;;14.75
77789;BMP280;70537;44.384;0.512;2024-03-17T08:13:49;101278.28;;;14.86
77789;BMP280;70537;44.384;0.512;2024-03-17T08:16:15;101297.91;;;14.74
77789;BMP280;70537;44.384;0.512;2024-03-17T08:18:42;101320.22;;;14.61
77789;BMP280;70537;44.384;0.512;2024-03-17T08:21:07;101351.53;;;14.77
77789;BMP280;70537;44.384;0.512;2024-03-17T08:23:33;101339.94;;;14.99
77789;BMP280;70537;44.384;0.512;2024-03-17T08:26:01;101337.41;;;15.23
77789;BMP280;70537;44.384;0.512;2024-03-17T08:28:27;101377.72;;;15.45
77789;BMP280;70537;44.384;0.512;2024-03-17T08:30:57;101388.66;;;15.62
77789;BMP280;70537;44.384;0.512;2024-03-17T08:33:23;101393.38;;;15.78
77789;BMP280;70537;44.384;0.512;2024-03-17T08:35:57;101384.13;;;15.76
77789;BMP280;70537;44.384;0.512;2024-03-17T08:38:23;101391.38;;;15.73
77789;BMP280;70537;44.384;0.512;2024-03-17T08:40:52;101404.53;;;15.86
77789;BMP280;70537;44.384;0.512;2024-03-17T08:43:19;101384.88;;;15.93
77789;BMP280;70537;44.384;0.512;2024-03-17T08:45:45;101384.72;;;16.33
77789;BMP280;70537;44.384;0.512;2024-03-17T08:48:10;101408.81;;;16.92
77789;BMP280;70537;44.384;0.512;2024-03-17T08:50:36;101451.97;;;17.28
77789;BMP280;70537;44.384;0.512;2024-03-17T08:53:02;101515.63;;;17.50
77789;BMP280;70537;44.384;0.512;2024-03-17T08:55:27;101488.84;;;17.68
77789;BMP280;70537;44.384;0.512;2024-03-17T08:57:53;101551.84;;;17.49
77789;BMP280;70537;44.384;0.512;2024-03-17T09:00:19;101527.97;;;17.38
77789;BMP280;70537;44.384;0.512;2024-03-17T09:02:44;101536.84;;;17.56
77789;BMP280;70537;44.384;0.512;2024-03-17T09:05:10;101556.00;;;17.61
77789;BMP280;70537;44.384;0.512;2024-03-17T09:07:38;101539.50;;;17.67
77789;BMP280;70537;44.384;0.512;2024-03-17T09:10:04;101550.78;;;17.88
77789;BMP280;70537;44.384;0.512;2024-03-17T09:12:30;101569.41;;;18.01
77789;BMP280;70537;44.384;0.512;2024-03-17T09:14:55;101552.47;;;17.66
77789;BMP280;70537;44.384;0.512;2024-03-17T09:17:21;101543.75;;;17.68
77789;BMP280;70537;44.384;0.512;2024-03-17T09:19:46;101531.03;;;17.59
77789;BMP280;70537;44.384;0.512;2024-03-17T09:22:13;101532.88;;;17.81
77789;BMP280;70537;44.384;0.512;2024-03-17T09:24:38;101593.75;;;18.15
77789;BMP280;70537;44.384;0.512;2024-03-17T09:27:04;101579.72;;;18.87
77789;BMP280;70537;44.384;0.512;2024-03-17T09:29:30;101580.53;;;19.01
77789;BMP280;70537;44.384;0.512;2024-03-17T09:31:56;101591.13;;;19.48
77789;BMP280;70537;44.384;0.512;2024-03-17T09:34:22;101599.63;;;19.50
77789;BMP280;70537;44.384;0.512;2024-03-17T09:36:47;101633.63;;;19.52
77789;BMP280;70537;44.384;0.512;2024-03-17T09:39:13;101627.72;;;19.61
77789;BMP280;70537;44.384;0.512;2024-03-17T09:41:39;101611.34;;;19.69
77789;BMP280;70537;44.384;0.512;2024-03-17T09:44:06;101621.84;;;19.84
77789;BMP280;70537;44.384;0.512;2024-03-17T09:46:35;101635.78;;;20.31
77789;BMP280;70537;44.384;0.512;2024-03-17T09:49:01;101651.69;;;19.99
77789;BMP280;70537;44.384;0.512;2024-03-17T09:51:27;101653.94;;;20.27
77789;BMP280;70537;44.384;0.512;2024-03-17T09:53:52;101669.66;;;20.45
77789;BMP280;70537;44.384;0.512;2024-03-17T09:56:19;101684.63;;;19.91
77789;BMP280;70537;44.384;0.512;2024-03-17T09:58:50;101689.81;;;20.40
77789;BMP280;70537;44.384;0.512;2024-03-17T10:01:16;101671.13;;;20.46
77789;BMP280;70537;44.384;0.512;2024-03-17T10:03:53;101669.44;;;20.56
77789;BMP280;70537;44.384;0.512;2024-03-17T10:06:29;101655.00;;;20.10
77789;BMP280;70537;44.384;0.512;2024-03-17T10:09:00;101655.22;;;20.12
77789;BMP280;70537;44.384;0.512;2024-03-17T10:11:41;101673.25;;;20.93
77789;BMP280;70537;44.384;0.512;2024-03-17T10:14:08;101673.69;;;21.31
77789;BMP280;70537;44.384;0.512;2024-03-17T10:16:35;101675.66;;;21.65
77789;BMP280;70537;44.384;0.512;2024-03-17T10:19:22;101689.34;;;21.91
77789;BMP280;70537;44.384;0.512;2024-03-17T10:21:49;101692.34;;;22.01
77789;BMP280;70537;44.384;0.512;2024-03-17T10:24:22;101702.78;;;22.44
77789;BMP280;70537;44.384;0.512;2024-03-17T10:26:53;101692.88;;;22.49
77789;BMP280;70537;44.384;0.512;2024-03-17T10:29:20;101690.19;;;22.28
77789;BMP280;70537;44.384;0.512;2024-03-17T10:31:47;101688.72;;;22.06
77789;BMP280;70537;44.384;0.512;2024-03-17T10:34:16;101690.94;;;21.87
77789;BMP280;70537;44.384;0.512;2024-03-17T10:36:45;101689.22;;;22.26
77789;BMP280;70537;44.384;0.512;2024-03-17T10:39:28;101694.84;;;22.12
77789;BMP280;70537;44.384;0.512;2024-03-17T10:42:01;101691.88;;;22.10
77789;BMP280;70537;44.384;0.512;2024-03-17T10:44:29;101685.09;;;21.69
77789;BMP280;70537;44.384;0.512;2024-03-17T10:46:55;101674.06;;;22.19
77789;BMP280;70537;44.384;0.512;2024-03-17T10:49:33;101672.66;;;22.33
77789;BMP280;70537;44.384;0.512;2024-03-17T10:52:04;101669.16;;;22.33
77789;BMP280;70537;44.384;0.512;2024-03-17T10:54:31;101673.84;;;22.17
77789;BMP280;70537;44.384;0.512;2024-03-17T10:57:04;101677.75;;;22.50
77789;BMP280;70537;44.384;0.512;2024-03-17T10:59:47;101674.28;;;22.57
77789;BMP280;70537;44.384;0.512;2024-03-17T11:02:22;101687.16;;;22.47
77789;BMP280;70537;44.384;0.512;2024-03-17T11:04:59;101690.56;;;22.32
77789;BMP280;70537;44.384;0.512;2024-03-17T11:07:25;101676.44;;;22.43
77789;BMP280;70537;44.384;0.512;2024-03-17T11:09:54;101679.25;;;22.59
77789;BMP280;70537;44.384;0.512;2024-03-17T11:12:46;101677.19;;;22.95
77789;BMP280;70537;44.384;0.512;2024-03-17T11:17:48;101664.75;;;23.48
77789;BMP280;70537;44.384;0.512;2024-03-17T11:20:36;101656.03;;;23.29
77789;BMP280;70537;44.384;0.512;2024-03-17T11:23:02;101657.88;;;22.59
77789;BMP280;70537;44.384;0.512;2024-03-17T11:28:08;101648.22;;;22.89
77789;BMP280;70537;44.384;0.512;2024-03-17T11:39:05;101633.72;;;23.49
77789;BMP280;70537;44.384;0.512;2024-03-17T11:41:47;101636.94;;;24.17
77789;BMP280;70537;44.384;0.512;2024-03-17T11:47:01;101630.97;;;24.28
77789;BMP280;70537;44.384;0.512;2024-03-17T11:51:57;101619.78;;;24.84
77789;BMP280;70537;44.384;0.512;2024-03-17T11:54:27;101627.84;;;24.64
77789;BMP280;70537;44.384;0.512;2024-03-17T11:56:55;101619.69;;;24.99
77789;BMP280;70537;44.384;0.512;2024-03-17T11:59:21;101615.19;;;24.78
77789;BMP280;70537;44.384;0.512;2024-03-17T12:01:49;101613.94;;;25.22
77789;BMP280;70537;44.384;0.512;2024-03-17T12:04:16;101612.19;;;25.09
77789;BMP280;70537;44.384;0.512;2024-03-17T12:06:46;101611.56;;;24.68
77789;BMP280;70537;44.384;0.512;2024-03-17T12:09:21;101610.97;;;24.37
77789;BMP280;70537;44.384;0.512;2024-03-17T12:12:01;101615.91;;;23.98
77789;BMP280;70537;44.384;0.512;2024-03-17T12:14:27;101612.66;;;24.25
77789;BMP280;70537;44.384;0.512;2024-03-17T12:16:55;101611.69;;;23.74
77789;BMP280;70537;44.384;0.512;2024-03-17T12:19:22;101606.09;;;24.13
77789;BMP280;70537;44.384;0.512;2024-03-17T12:22:01;101612.75;;;24.50
77789;BMP280;70537;44.384;0.512;2024-03-17T12:24:29;101607.63;;;24.71
77789;BMP280;70537;44.384;0.512;2024-03-17T12:26:57;101619.25;;;25.10
77789;BMP280;70537;44.384;0.512;2024-03-17T12:29:38;101607.72;;;25.14
77789;BMP280;70537;44.384;0.512;2024-03-17T12:32:16;101607.97;;;25.33
77789;BMP280;70537;44.384;0.512;2024-03-17T12:34:46;101605.13;;;25.58
77789;BMP280;70537;44.384;0.512;2024-03-17T12:37:31;101596.72;;;25.23
77789;BMP280;70537;44.384;0.512;2024-03-17T12:40:00;101605.97;;;24.76
77789;BMP280;70537;44.384;0.512;2024-03-17T12:42:27;101601.19;;;24.28
77789;BMP280;70537;44.384;0.512;2024-03-17T12:44:56;101598.38;;;23.81
77789;BMP280;70537;44.384;0.512;2024-03-17T12:47:29;101585.63;;;23.85
77789;BMP280;70537;44.384;0.512;2024-03-17T12:49:59;101584.19;;;24.24
77789;BMP280;70537;44.384;0.512;2024-03-17T12:52:29;101575.69;;;24.22
77789;BMP280;70537;44.384;0.512;2024-03-17T12:55:02;101583.19;;;24.45
77789;BMP280;70537;44.384;0.512;2024-03-17T12:57:49;101582.66;;;24.39
77789;BMP280;70537;44.384;0.512;2024-03-17T13:00:34;101584.19;;;24.24
77789;BMP280;70537;44.384;0.512;2024-03-17T13:03:01;101572.03;;;24.12
77789;BMP280;70537;44.384;0.512;2024-03-17T13:05:27;101580.47;;;23.74
77789;BMP280;70537;44.384;0.512;2024-03-17T13:07:53;101584.34;;;23.63
77789;BMP280;70537;44.384;0.512;2024-03-17T13:10:22;101581.97;;;23.52
77789;BMP280;70537;44.384;0.512;2024-03-17T13:13:01;101572.16;;;23.66
77789;BMP280;70537;44.384;0.512;2024-03-17T13:15:27;101579.72;;;23.66
77789;BMP280;70537;44.384;0.512;2024-03-17T13:17:57;101572.97;;;24.07
77789;BMP280;70537;44.384;0.512;2024-03-17T13:20:22;101564.31;;;23.95
77789;BMP280;70537;44.384;0.512;2024-03-17T13:22:49;101571.53;;;23.98
77789;BMP280;70537;44.384;0.512;2024-03-17T13:25:17;101564.25;;;24.18
77789;BMP280;70537;44.384;0.512;2024-03-17T13:27:46;101555.53;;;24.30
77789;BMP280;70537;44.384;0.512;2024-03-17T13:30:13;101551.75;;;24.42
77789;BMP280;70537;44.384;0.512;2024-03-17T13:32:39;101534.44;;;24.59
77789;BMP280;70537;44.384;0.512;2024-03-17T13:35:06;101529.47;;;24.50
77789;BMP280;70537;44.384;0.512;2024-03-17T13:37:34;101542.44;;;24.55
77789;BMP280;70537;44.384;0.512;2024-03-17T13:40:03;101534.03;;;24.63
77789;BMP280;70537;44.384;0.512;2024-03-17T13:42:33;101532.50;;;24.44
77789;BMP280;70537;44.384;0.512;2024-03-17T13:44:59;101536.00;;;24.45
77789;BMP280;70537;44.384;0.512;2024-03-17T13:47:24;101542.94;;;24.28
77789;BMP280;70537;44.384;0.512;2024-03-17T13:49:50;101550.44;;;24.03
77789;BMP280;70537;44.384;0.512;2024-03-17T13:52:17;101537.38;;;23.81
77789;BMP280;70537;44.384;0.512;2024-03-17T13:54:43;101541.22;;;23.93
77789;BMP280;70537;44.384;0.512;2024-03-17T13:57:09;101532.66;;;24.06
77789;BMP280;70537;44.384;0.512;2024-03-17T13:59:34;101534.63;;;24.61
77789;BMP280;70537;44.384;0.512;2024-03-17T14:02:01;101533.47;;;24.89
77789;BMP280;70537;44.384;0.512;2024-03-17T14:04:27;101532.19;;;24.65
77789;BMP280;70537;44.384;0.512;2024-03-17T14:06:53;101530.06;;;24.73
77789;BMP280;70537;44.384;0.512;2024-03-17T14:09:19;101535.69;;;24.66
77789;BMP280;70537;44.384;0.512;2024-03-17T14:11:45;101536.94;;;24.72
77789;BMP280;70537;44.384;0.512;2024-03-17T14:14:12;101527.47;;;24.75
77789;BMP280;70537;44.384;0.512;2024-03-17T14:16:38;101533.66;;;24.66
77789;BMP280;70537;44.384;0.512;2024-03-17T14:19:04;101533.00;;;24.75
77789;BMP280;70537;44.384;0.512;2024-03-17T14:21:30;101534.50;;;24.44